sensor_id;sensor_type;location;lat;lon;timestamp;P1;durP1;ratioP1;P2;durP2;ratioP2
74465;SDS011;62916;50.044;15.938;2022-12-18T00:01:59;30.90;;;24.40;;
74465;SDS011;62916;50.044;15.938;2022-12-18T00:04:30;30.50;;;23.70;;
74465;SDS011;62916;50.044;15.938;2022-12-18T00:07:00;30.60;;;24.20;;
74465;SDS011;62916;50.044;15.938;2022-12-18T00:09:31;31.00;;;24.70;;
74465;SDS011;62916;50.044;15.938;2022-12-18T00:12:07;30.60;;;24.00;;
74465;SDS011;62916;50.044;15.938;2022-12-18T00:14:45;31.10;;;23.50;;
74465;SDS011;62916;50.044;15.938;2022-12-18T00:17:15;28.70;;;23.70;;
74465;SDS011;62916;50.044;15.938;2022-12-18T00:19:46;32.10;;;24.10;;
74465;SDS011;62916;50.044;15.938;2022-12-18T00:22:17;30.50;;;23.70;;
74465;SDS011;62916;50.044;15.938;2022-12-18T00:24:47;29.00;;;23.70;;
74465;SDS011;62916;50.044;15.938;2022-12-18T00:27:18;31.30;;;26.50;;
74465;SDS011;62916;50.044;15.938;2022-12-18T00:29:49;28.80;;;22.70;;
74465;SDS011;62916;50.044;15.938;2022-12-18T00:32:20;28.00;;;22.60;;
74465;SDS011;62916;50.044;15.938;2022-12-18T00:34:50;26.90;;;22.30;;
74465;SDS011;62916;50.044;15.938;2022-12-18T00:37:21;29.10;;;23.30;;
74465;SDS011;62916;50.044;15.938;2022-12-18T00:39:51;27.30;;;22.70;;
74465;SDS011;62916;50.044;15.938;2022-12-18T00:42:22;28.40;;;22.80;;
74465;SDS011;62916;50.044;15.938;2022-12-18T00:45:11;28.20;;;22.70;;
74465;SDS011;62916;50.044;15.938;2022-12-18T00:47:41;30.00;;;24.30;;
74465;SDS011;62916;50.044;15.938;2022-12-18T00:50:12;30.60;;;23.00;;
74465;SDS011;62916;50.044;15.938;2022-12-18T00:52:43;27.00;;;21.60;;
74465;SDS011;62916;50.044;15.938;2022-12-18T00:55:14;28.20;;;22.10;;
74465;SDS011;62916;50.044;15.938;2022-12-18T00:57:45;28.10;;;21.70;;
74465;SDS011;62916;50.044;15.938;2022-12-18T01:00:16;28.10;;;22.00;;
74465;SDS011;62916;50.044;15.938;2022-12-18T01:02:47;30.00;;;22.70;;
74465;SDS011;62916;50.044;15.938;2022-12-18T01:05:18;28.70;;;22.90;;
74465;SDS011;62916;50.044;15.938;2022-12-18T01:07:49;26.70;;;21.60;;
74465;SDS011;62916;50.044;15.938;2022-12-18T01:10:20;29.10;;;21.80;;
74465;SDS011;62916;50.044;15.938;2022-12-18T01:12:51;26.50;;;21.00;;
74465;SDS011;62916;50.044;15.938;2022-12-18T01:15:22;26.50;;;21.80;;
74465;SDS011;62916;50.044;15.938;2022-12-18T01:17:53;27.80;;;20.90;;
74465;SDS011;62916;50.044;15.938;2022-12-18T01:20:23;26.90;;;20.90;;
74465;SDS011;62916;50.044;15.938;2022-12-18T01:22:54;25.50;;;20.40;;
74465;SDS011;62916;50.044;15.938;2022-12-18T01:25:25;27.10;;;21.60;;
74465;SDS011;62916;50.044;15.938;2022-12-18T01:27:56;26.10;;;20.40;;
74465;SDS011;62916;50.044;15.938;2022-12-18T01:30:26;27.00;;;21.80;;
74465;SDS011;62916;50.044;15.938;2022-12-18T01:32:57;26.80;;;21.20;;
74465;SDS011;62916;50.044;15.938;2022-12-18T01:35:28;23.60;;;19.10;;
74465;SDS011;62916;50.044;15.938;2022-12-18T01:37:58;23.80;;;19.00;;
74465;SDS011;62916;50.044;15.938;2022-12-18T01:40:29;27.50;;;21.30;;
74465;SDS011;62916;50.044;15.938;2022-12-18T01:43:00;25.80;;;19.80;;
74465;SDS011;62916;50.044;15.938;2022-12-18T01:45:31;24.90;;;19.40;;
74465;SDS011;62916;50.044;15.938;2022-12-18T01:48:03;27.60;;;19.30;;
74465;SDS011;62916;50.044;15.938;2022-12-18T01:50:37;25.60;;;19.90;;
74465;SDS011;62916;50.044;15.938;2022-12-18T01:53:12;25.30;;;19.30;;
74465;SDS011;62916;50.044;15.938;2022-12-18T01:55:46;25.20;;;19.50;;
74465;SDS011;62916;50.044;15.938;2022-12-18T01:58:21;23.70;;;19.20;;
74465;SDS011;62916;50.044;15.938;2022-12-18T02:00:59;25.70;;;19.30;;
74465;SDS011;62916;50.044;15.938;2022-12-18T02:03:30;23.20;;;18.40;;
74465;SDS011;62916;50.044;15.938;2022-12-18T02:06:04;23.90;;;18.80;;
74465;SDS011;62916;50.044;15.938;2022-12-18T02:08:42;23.90;;;17.70;;
74465;SDS011;62916;50.044;15.938;2022-12-18T02:11:22;23.90;;;18.50;;
74465;SDS011;62916;50.044;15.938;2022-12-18T02:14:03;23.70;;;18.20;;
74465;SDS011;62916;50.044;15.938;2022-12-18T02:16:46;23.50;;;18.00;;
74465;SDS011;62916;50.044;15.938;2022-12-18T02:19:39;24.30;;;18.80;;
74465;SDS011;62916;50.044;15.938;2022-12-18T02:22:20;22.70;;;18.60;;
74465;SDS011;62916;50.044;15.938;2022-12-18T02:25:04;24.10;;;18.30;;
74465;SDS011;62916;50.044;15.938;2022-12-18T02:27:46;21.20;;;17.40;;
74465;SDS011;62916;50.044;15.938;2022-12-18T02:30:20;23.30;;;17.50;;
74465;SDS011;62916;50.044;15.938;2022-12-18T02:32:52;21.50;;;16.90;;
74465;SDS011;62916;50.044;15.938;2022-12-18T02:35:25;22.10;;;17.70;;
74465;SDS011;62916;50.044;15.938;2022-12-18T02:37:58;21.80;;;17.40;;
74465;SDS011;62916;50.044;15.938;2022-12-18T02:40:32;20.00;;;16.70;;
74465;SDS011;62916;50.044;15.938;2022-12-18T02:43:08;21.30;;;16.50;;
74465;SDS011;62916;50.044;15.938;2022-12-18T02:45:47;20.80;;;16.60;;
74465;SDS011;62916;50.044;15.938;2022-12-18T02:48:24;21.10;;;16.90;;
74465;SDS011;62916;50.044;15.938;2022-12-18T02:50:59;19.00;;;16.50;;
74465;SDS011;62916;50.044;15.938;2022-12-18T02:53:44;19.80;;;16.60;;
74465;SDS011;62916;50.044;15.938;2022-12-18T02:56:21;18.90;;;15.70;;
74465;SDS011;62916;50.044;15.938;2022-12-18T02:58:58;20.80;;;16.10;;
74465;SDS011;62916;50.044;15.938;2022-12-18T03:01:33;19.80;;;15.00;;
74465;SDS011;62916;50.044;15.938;2022-12-18T03:04:12;19.90;;;15.00;;
74465;SDS011;62916;50.044;15.938;2022-12-18T03:06:49;19.90;;;15.30;;
74465;SDS011;62916;50.044;15.938;2022-12-18T03:09:25;21.00;;;15.70;;
74465;SDS011;62916;50.044;15.938;2022-12-18T03:12:01;19.70;;;15.80;;
74465;SDS011;62916;50.044;15.938;2022-12-18T03:14:54;21.70;;;16.00;;
74465;SDS011;62916;50.044;15.938;2022-12-18T03:17:31;19.00;;;15.10;;
74465;SDS011;62916;50.044;15.938;2022-12-18T03:20:04;19.00;;;15.30;;
74465;SDS011;62916;50.044;15.938;2022-12-18T03:22:38;20.00;;;15.80;;
74465;SDS011;62916;50.044;15.938;2022-12-18T03:25:12;21.30;;;15.10;;
74465;SDS011;62916;50.044;15.938;2022-12-18T03:27:46;19.30;;;15.00;;
74465;SDS011;62916;50.044;15.938;2022-12-18T03:32:48;19.20;;;14.10;;
74465;SDS011;62916;50.044;15.938;2022-12-18T03:35:28;18.00;;;14.40;;
74465;SDS011;62916;50.044;15.938;2022-12-18T03:38:02;18.00;;;14.40;;
74465;SDS011;62916;50.044;15.938;2022-12-18T03:40:35;19.20;;;14.60;;
74465;SDS011;62916;50.044;15.938;2022-12-18T03:43:16;18.40;;;14.40;;
74465;SDS011;62916;50.044;15.938;2022-12-18T03:45:56;18.30;;;14.70;;
74465;SDS011;62916;50.044;15.938;2022-12-18T03:48:32;17.50;;;13.80;;
74465;SDS011;62916;50.044;15.938;2022-12-18T03:51:09;18.60;;;15.90;;
74465;SDS011;62916;50.044;15.938;2022-12-18T03:53:44;18.50;;;13.80;;
74465;SDS011;62916;50.044;15.938;2022-12-18T03:56:20;17.50;;;14.10;;
74465;SDS011;62916;50.044;15.938;2022-12-18T03:58:54;18.50;;;13.70;;
74465;SDS011;62916;50.044;15.938;2022-12-18T04:01:28;17.20;;;13.50;;
74465;SDS011;62916;50.044;15.938;2022-12-18T04:04:04;18.60;;;14.10;;
74465;SDS011;62916;50.044;15.938;2022-12-18T04:06:37;15.50;;;13.10;;
74465;SDS011;62916;50.044;15.938;2022-12-18T04:09:09;16.90;;;13.20;;
74465;SDS011;62916;50.044;15.938;2022-12-18T04:11:40;17.00;;;14.30;;
74465;SDS011;62916;50.044;15.938;2022-12-18T04:14:12;16.40;;;13.10;;
74465;SDS011;62916;50.044;15.938;2022-12-18T04:16:45;18.40;;;13.90;;
74465;SDS011;62916;50.044;15.938;2022-12-18T04:19:16;17.50;;;14.20;;
74465;SDS011;62916;50.044;15.938;2022-12-18T04:21:46;18.30;;;13.50;;
74465;SDS011;62916;50.044;15.938;2022-12-18T04:24:17;18.50;;;13.80;;
74465;SDS011;62916;50.044;15.938;2022-12-18T04:26:48;16.70;;;14.20;;
74465;SDS011;62916;50.044;15.938;2022-12-18T04:29:18;17.40;;;13.40;;
74465;SDS011;62916;50.044;15.938;2022-12-18T04:31:50;17.10;;;12.60;;
74465;SDS011;62916;50.044;15.938;2022-12-18T04:34:20;16.40;;;13.00;;
74465;SDS011;62916;50.044;15.938;2022-12-18T04:36:51;16.80;;;12.60;;
74465;SDS011;62916;50.044;15.938;2022-12-18T04:39:22;17.40;;;13.30;;
74465;SDS011;62916;50.044;15.938;2022-12-18T04:41:53;16.20;;;13.00;;
74465;SDS011;62916;50.044;15.938;2022-12-18T04:44:24;16.40;;;13.00;;
74465;SDS011;62916;50.044;15.938;2022-12-18T04:46:54;17.40;;;13.60;;
74465;SDS011;62916;50.044;15.938;2022-12-18T04:49:25;18.10;;;13.00;;
74465;SDS011;62916;50.044;15.938;2022-12-18T04:51:56;15.70;;;12.30;;
74465;SDS011;62916;50.044;15.938;2022-12-18T04:54:26;16.10;;;13.30;;
74465;SDS011;62916;50.044;15.938;2022-12-18T04:56:57;16.20;;;12.80;;
74465;SDS011;62916;50.044;15.938;2022-12-18T04:59:28;17.70;;;13.20;;
74465;SDS011;62916;50.044;15.938;2022-12-18T05:01:59;16.30;;;12.60;;
74465;SDS011;62916;50.044;15.938;2022-12-18T05:04:30;15.60;;;12.40;;
74465;SDS011;62916;50.044;15.938;2022-12-18T05:07:00;16.50;;;12.80;;
74465;SDS011;62916;50.044;15.938;2022-12-18T05:09:31;17.00;;;11.80;;
74465;SDS011;62916;50.044;15.938;2022-12-18T05:12:02;15.10;;;12.00;;
74465;SDS011;62916;50.044;15.938;2022-12-18T05:14:33;14.90;;;11.80;;
74465;SDS011;62916;50.044;15.938;2022-12-18T05:17:04;15.20;;;12.60;;
74465;SDS011;62916;50.044;15.938;2022-12-18T05:19:34;14.90;;;12.10;;
74465;SDS011;62916;50.044;15.938;2022-12-18T05:22:06;16.00;;;13.00;;
74465;SDS011;62916;50.044;15.938;2022-12-18T05:24:37;15.30;;;11.90;;
74465;SDS011;62916;50.044;15.938;2022-12-18T05:27:08;14.20;;;11.10;;
74465;SDS011;62916;50.044;15.938;2022-12-18T05:29:39;16.00;;;12.20;;
74465;SDS011;62916;50.044;15.938;2022-12-18T05:32:09;14.80;;;12.20;;
74465;SDS011;62916;50.044;15.938;2022-12-18T05:34:40;14.20;;;11.70;;
74465;SDS011;62916;50.044;15.938;2022-12-18T05:37:10;15.10;;;11.00;;
74465;SDS011;62916;50.044;15.938;2022-12-18T05:39:41;13.60;;;10.60;;
74465;SDS011;62916;50.044;15.938;2022-12-18T05:42:12;15.10;;;11.80;;
74465;SDS011;62916;50.044;15.938;2022-12-18T05:44:44;14.20;;;11.30;;
74465;SDS011;62916;50.044;15.938;2022-12-18T05:47:15;13.50;;;11.70;;
74465;SDS011;62916;50.044;15.938;2022-12-18T05:49:45;14.00;;;11.30;;
74465;SDS011;62916;50.044;15.938;2022-12-18T05:52:16;15.10;;;11.50;;
74465;SDS011;62916;50.044;15.938;2022-12-18T05:54:47;13.50;;;10.50;;
74465;SDS011;62916;50.044;15.938;2022-12-18T05:57:17;13.20;;;10.80;;
74465;SDS011;62916;50.044;15.938;2022-12-18T05:59:48;14.20;;;10.50;;
74465;SDS011;62916;50.044;15.938;2022-12-18T06:02:19;14.80;;;11.30;;
74465;SDS011;62916;50.044;15.938;2022-12-18T06:04:50;13.30;;;10.60;;
74465;SDS011;62916;50.044;15.938;2022-12-18T06:07:21;13.40;;;10.70;;
74465;SDS011;62916;50.044;15.938;2022-12-18T06:09:52;15.80;;;12.10;;
74465;SDS011;62916;50.044;15.938;2022-12-18T06:12:22;12.30;;;10.20;;
74465;SDS011;62916;50.044;15.938;2022-12-18T06:14:53;12.90;;;10.70;;
74465;SDS011;62916;50.044;15.938;2022-12-18T06:17:24;13.30;;;11.60;;
74465;SDS011;62916;50.044;15.938;2022-12-18T06:19:58;13.20;;;10.40;;
74465;SDS011;62916;50.044;15.938;2022-12-18T06:22:30;13.80;;;10.40;;
74465;SDS011;62916;50.044;15.938;2022-12-18T06:25:01;13.20;;;10.70;;
74465;SDS011;62916;50.044;15.938;2022-12-18T06:27:34;13.90;;;10.80;;
74465;SDS011;62916;50.044;15.938;2022-12-18T06:30:06;14.20;;;10.50;;
74465;SDS011;62916;50.044;15.938;2022-12-18T06:32:38;13.60;;;10.60;;
74465;SDS011;62916;50.044;15.938;2022-12-18T06:35:09;12.50;;;10.60;;
74465;SDS011;62916;50.044;15.938;2022-12-18T06:37:40;11.70;;;9.20;;
74465;SDS011;62916;50.044;15.938;2022-12-18T06:40:11;12.60;;;9.70;;
74465;SDS011;62916;50.044;15.938;2022-12-18T06:42:42;11.90;;;10.10;;
74465;SDS011;62916;50.044;15.938;2022-12-18T06:45:15;13.30;;;10.10;;
74465;SDS011;62916;50.044;15.938;2022-12-18T06:47:46;12.60;;;9.70;;
74465;SDS011;62916;50.044;15.938;2022-12-18T06:50:17;12.30;;;10.30;;
74465;SDS011;62916;50.044;15.938;2022-12-18T06:52:47;12.30;;;9.90;;
74465;SDS011;62916;50.044;15.938;2022-12-18T06:55:19;11.90;;;9.30;;
74465;SDS011;62916;50.044;15.938;2022-12-18T06:57:50;12.20;;;9.80;;
74465;SDS011;62916;50.044;15.938;2022-12-18T07:00:21;12.60;;;9.50;;
74465;SDS011;62916;50.044;15.938;2022-12-18T07:02:51;12.40;;;9.70;;
74465;SDS011;62916;50.044;15.938;2022-12-18T07:05:22;10.00;;;8.40;;
74465;SDS011;62916;50.044;15.938;2022-12-18T07:07:53;10.60;;;8.70;;
74465;SDS011;62916;50.044;15.938;2022-12-18T07:10:24;12.80;;;8.70;;
74465;SDS011;62916;50.044;15.938;2022-12-18T07:12:54;12.10;;;9.60;;
74465;SDS011;62916;50.044;15.938;2022-12-18T07:15:25;12.00;;;9.00;;
74465;SDS011;62916;50.044;15.938;2022-12-18T07:17:56;13.90;;;9.20;;
74465;SDS011;62916;50.044;15.938;2022-12-18T07:20:27;12.50;;;9.10;;
74465;SDS011;62916;50.044;15.938;2022-12-18T07:22:58;12.50;;;9.40;;
74465;SDS011;62916;50.044;15.938;2022-12-18T07:25:30;13.90;;;9.20;;
74465;SDS011;62916;50.044;15.938;2022-12-18T07:28:04;12.40;;;8.50;;
74465;SDS011;62916;50.044;15.938;2022-12-18T07:30:42;11.90;;;8.30;;
74465;SDS011;62916;50.044;15.938;2022-12-18T07:33:14;11.70;;;8.90;;
74465;SDS011;62916;50.044;15.938;2022-12-18T07:35:45;12.20;;;9.20;;
74465;SDS011;62916;50.044;15.938;2022-12-18T07:38:16;10.00;;;7.00;;
74465;SDS011;62916;50.044;15.938;2022-12-18T07:40:47;12.10;;;8.10;;
74465;SDS011;62916;50.044;15.938;2022-12-18T07:43:18;12.60;;;8.80;;
74465;SDS011;62916;50.044;15.938;2022-12-18T07:45:50;10.30;;;8.20;;
74465;SDS011;62916;50.044;15.938;2022-12-18T07:48:21;12.10;;;9.30;;
74465;SDS011;62916;50.044;15.938;2022-12-18T07:50:51;10.40;;;8.10;;
74465;SDS011;62916;50.044;15.938;2022-12-18T07:53:22;9.50;;;7.80;;
74465;SDS011;62916;50.044;15.938;2022-12-18T07:55:56;11.00;;;8.80;;
74465;SDS011;62916;50.044;15.938;2022-12-18T07:58:47;12.40;;;8.70;;
74465;SDS011;62916;50.044;15.938;2022-12-18T08:01:18;12.30;;;7.90;;
74465;SDS011;62916;50.044;15.938;2022-12-18T08:03:50;16.40;;;8.20;;
74465;SDS011;62916;50.044;15.938;2022-12-18T08:06:21;11.30;;;7.20;;
74465;SDS011;62916;50.044;15.938;2022-12-18T08:08:53;12.10;;;9.40;;
74465;SDS011;62916;50.044;15.938;2022-12-18T08:11:25;11.80;;;7.90;;
74465;SDS011;62916;50.044;15.938;2022-12-18T08:13:57;10.70;;;7.70;;
74465;SDS011;62916;50.044;15.938;2022-12-18T08:16:28;12.30;;;7.90;;
74465;SDS011;62916;50.044;15.938;2022-12-18T08:18:59;13.70;;;8.40;;
74465;SDS011;62916;50.044;15.938;2022-12-18T08:21:30;11.10;;;8.20;;
74465;SDS011;62916;50.044;15.938;2022-12-18T08:24:01;10.80;;;8.20;;
74465;SDS011;62916;50.044;15.938;2022-12-18T08:26:32;9.40;;;7.60;;
74465;SDS011;62916;50.044;15.938;2022-12-18T08:29:03;10.40;;;7.40;;
74465;SDS011;62916;50.044;15.938;2022-12-18T08:31:34;8.80;;;6.60;;
74465;SDS011;62916;50.044;15.938;2022-12-18T08:34:05;10.60;;;7.40;;
74465;SDS011;62916;50.044;15.938;2022-12-18T08:36:36;10.30;;;7.00;;
74465;SDS011;62916;50.044;15.938;2022-12-18T08:39:07;11.40;;;7.20;;
74465;SDS011;62916;50.044;15.938;2022-12-18T08:41:38;10.80;;;6.80;;
74465;SDS011;62916;50.044;15.938;2022-12-18T08:44:09;9.90;;;6.90;;
74465;SDS011;62916;50.044;15.938;2022-12-18T08:46:57;9.30;;;6.80;;
74465;SDS011;62916;50.044;15.938;2022-12-18T08:49:28;7.80;;;6.70;;
74465;SDS011;62916;50.044;15.938;2022-12-18T08:51:59;9.60;;;6.80;;
74465;SDS011;62916;50.044;15.938;2022-12-18T08:54:30;9.80;;;6.60;;
74465;SDS011;62916;50.044;15.938;2022-12-18T08:57:01;8.70;;;6.80;;
74465;SDS011;62916;50.044;15.938;2022-12-18T08:59:32;10.40;;;7.80;;
74465;SDS011;62916;50.044;15.938;2022-12-18T09:02:03;9.80;;;6.60;;
74465;SDS011;62916;50.044;15.938;2022-12-18T09:04:34;13.50;;;7.10;;
74465;SDS011;62916;50.044;15.938;2022-12-18T09:07:05;9.70;;;7.40;;
74465;SDS011;62916;50.044;15.938;2022-12-18T09:09:37;10.20;;;6.90;;
74465;SDS011;62916;50.044;15.938;2022-12-18T09:12:07;9.80;;;7.20;;
74465;SDS011;62916;50.044;15.938;2022-12-18T09:14:38;8.20;;;6.40;;
74465;SDS011;62916;50.044;15.938;2022-12-18T09:17:09;10.30;;;7.00;;
74465;SDS011;62916;50.044;15.938;2022-12-18T09:19:40;10.40;;;7.40;;
74465;SDS011;62916;50.044;15.938;2022-12-18T09:22:11;8.90;;;6.60;;
74465;SDS011;62916;50.044;15.938;2022-12-18T09:24:41;8.50;;;6.70;;
74465;SDS011;62916;50.044;15.938;2022-12-18T09:27:12;8.70;;;6.90;;
74465;SDS011;62916;50.044;15.938;2022-12-18T09:29:43;9.50;;;6.80;;
74465;SDS011;62916;50.044;15.938;2022-12-18T09:32:14;8.40;;;6.70;;
74465;SDS011;62916;50.044;15.938;2022-12-18T09:34:49;9.00;;;7.00;;
74465;SDS011;62916;50.044;15.938;2022-12-18T09:37:20;9.10;;;6.60;;
74465;SDS011;62916;50.044;15.938;2022-12-18T09:39:50;8.60;;;6.20;;
74465;SDS011;62916;50.044;15.938;2022-12-18T09:42:21;8.60;;;6.60;;
74465;SDS011;62916;50.044;15.938;2022-12-18T09:44:53;7.80;;;6.00;;
74465;SDS011;62916;50.044;15.938;2022-12-18T09:47:25;8.90;;;6.10;;
74465;SDS011;62916;50.044;15.938;2022-12-18T09:49:59;8.00;;;6.30;;
74465;SDS011;62916;50.044;15.938;2022-12-18T09:52:33;7.70;;;6.50;;
74465;SDS011;62916;50.044;15.938;2022-12-18T09:55:10;7.80;;;6.20;;
74465;SDS011;62916;50.044;15.938;2022-12-18T09:57:49;8.60;;;5.90;;
74465;SDS011;62916;50.044;15.938;2022-12-18T10:00:24;7.00;;;5.90;;
74465;SDS011;62916;50.044;15.938;2022-12-18T10:02:56;7.80;;;6.30;;
74465;SDS011;62916;50.044;15.938;2022-12-18T10:05:33;6.70;;;5.80;;
74465;SDS011;62916;50.044;15.938;2022-12-18T10:08:12;7.30;;;6.20;;
74465;SDS011;62916;50.044;15.938;2022-12-18T10:10:48;8.80;;;6.20;;
74465;SDS011;62916;50.044;15.938;2022-12-18T10:13:22;8.10;;;6.00;;
74465;SDS011;62916;50.044;15.938;2022-12-18T10:16:07;8.20;;;6.20;;
74465;SDS011;62916;50.044;15.938;2022-12-18T10:18:54;8.30;;;5.70;;
74465;SDS011;62916;50.044;15.938;2022-12-18T10:21:32;8.00;;;6.00;;
74465;SDS011;62916;50.044;15.938;2022-12-18T10:24:12;7.00;;;5.30;;
74465;SDS011;62916;50.044;15.938;2022-12-18T10:26:50;8.00;;;5.60;;
74465;SDS011;62916;50.044;15.938;2022-12-18T10:29:25;6.20;;;5.10;;
74465;SDS011;62916;50.044;15.938;2022-12-18T10:31:56;6.80;;;5.30;;
74465;SDS011;62916;50.044;15.938;2022-12-18T10:34:27;6.80;;;5.40;;
74465;SDS011;62916;50.044;15.938;2022-12-18T10:36:58;7.30;;;5.60;;
74465;SDS011;62916;50.044;15.938;2022-12-18T10:39:35;6.30;;;5.00;;
74465;SDS011;62916;50.044;15.938;2022-12-18T10:42:10;7.00;;;5.70;;
74465;SDS011;62916;50.044;15.938;2022-12-18T10:44:46;7.40;;;5.90;;
74465;SDS011;62916;50.044;15.938;2022-12-18T10:47:32;7.40;;;5.60;;
74465;SDS011;62916;50.044;15.938;2022-12-18T10:50:05;6.60;;;5.10;;
74465;SDS011;62916;50.044;15.938;2022-12-18T10:53:13;6.80;;;5.20;;
74465;SDS011;62916;50.044;15.938;2022-12-18T10:55:48;6.80;;;4.80;;
74465;SDS011;62916;50.044;15.938;2022-12-18T10:58:27;6.80;;;5.30;;
74465;SDS011;62916;50.044;15.938;2022-12-18T11:01:05;5.90;;;5.30;;
74465;SDS011;62916;50.044;15.938;2022-12-18T11:03:41;7.20;;;5.60;;
74465;SDS011;62916;50.044;15.938;2022-12-18T11:06:14;8.20;;;5.20;;
74465;SDS011;62916;50.044;15.938;2022-12-18T11:08:57;5.40;;;4.90;;
74465;SDS011;62916;50.044;15.938;2022-12-18T11:11:39;6.60;;;5.10;;
74465;SDS011;62916;50.044;15.938;2022-12-18T11:14:12;7.80;;;5.70;;
74465;SDS011;62916;50.044;15.938;2022-12-18T11:16:47;6.90;;;5.20;;
74465;SDS011;62916;50.044;15.938;2022-12-18T11:19:39;5.90;;;5.30;;
74465;SDS011;62916;50.044;15.938;2022-12-18T11:22:19;6.70;;;5.00;;
74465;SDS011;62916;50.044;15.938;2022-12-18T11:24:55;7.60;;;5.80;;
74465;SDS011;62916;50.044;15.938;2022-12-18T11:27:48;6.20;;;4.80;;
74465;SDS011;62916;50.044;15.938;2022-12-18T11:30:22;6.60;;;5.10;;
74465;SDS011;62916;50.044;15.938;2022-12-18T11:32:55;6.10;;;5.00;;
74465;SDS011;62916;50.044;15.938;2022-12-18T11:35:42;6.00;;;4.50;;
74465;SDS011;62916;50.044;15.938;2022-12-18T11:38:21;5.30;;;4.70;;
74465;SDS011;62916;50.044;15.938;2022-12-18T11:40:56;6.70;;;5.00;;
74465;SDS011;62916;50.044;15.938;2022-12-18T11:43:31;6.70;;;4.90;;
74465;SDS011;62916;50.044;15.938;2022-12-18T11:46:05;6.50;;;5.30;;
74465;SDS011;62916;50.044;15.938;2022-12-18T11:48:47;5.60;;;5.00;;
74465;SDS011;62916;50.044;15.938;2022-12-18T11:51:25;6.20;;;4.80;;
74465;SDS011;62916;50.044;15.938;2022-12-18T11:54:01;6.20;;;5.60;;
74465;SDS011;62916;50.044;15.938;2022-12-18T11:56:42;7.00;;;5.00;;
74465;SDS011;62916;50.044;15.938;2022-12-18T11:59:19;6.10;;;4.90;;
74465;SDS011;62916;50.044;15.938;2022-12-18T12:01:58;6.30;;;4.60;;
74465;SDS011;62916;50.044;15.938;2022-12-18T12:04:48;6.90;;;5.10;;
74465;SDS011;62916;50.044;15.938;2022-12-18T12:07:33;6.70;;;5.70;;
74465;SDS011;62916;50.044;15.938;2022-12-18T12:10:19;6.10;;;5.20;;
74465;SDS011;62916;50.044;15.938;2022-12-18T12:13:03;6.30;;;4.80;;
74465;SDS011;62916;50.044;15.938;2022-12-18T12:15:46;5.70;;;5.20;;
74465;SDS011;62916;50.044;15.938;2022-12-18T12:18:31;6.50;;;5.40;;
74465;SDS011;62916;50.044;15.938;2022-12-18T12:21:07;6.40;;;5.20;;
74465;SDS011;62916;50.044;15.938;2022-12-18T12:23:43;6.70;;;5.80;;
74465;SDS011;62916;50.044;15.938;2022-12-18T12:26:22;6.10;;;5.10;;
74465;SDS011;62916;50.044;15.938;2022-12-18T12:29:04;5.80;;;4.80;;
74465;SDS011;62916;50.044;15.938;2022-12-18T12:31:56;6.80;;;5.30;;
74465;SDS011;62916;50.044;15.938;2022-12-18T12:34:44;6.70;;;5.60;;
74465;SDS011;62916;50.044;15.938;2022-12-18T12:37:32;8.10;;;5.30;;
74465;SDS011;62916;50.044;15.938;2022-12-18T12:40:11;6.00;;;5.50;;
74465;SDS011;62916;50.044;15.938;2022-12-18T12:43:10;6.70;;;6.00;;
74465;SDS011;62916;50.044;15.938;2022-12-18T12:45:49;6.70;;;5.10;;
74465;SDS011;62916;50.044;15.938;2022-12-18T12:48:27;6.20;;;5.50;;
74465;SDS011;62916;50.044;15.938;2022-12-18T12:51:07;5.40;;;4.90;;
74465;SDS011;62916;50.044;15.938;2022-12-18T12:53:41;7.00;;;5.10;;
74465;SDS011;62916;50.044;15.938;2022-12-18T12:56:14;6.30;;;5.10;;
74465;SDS011;62916;50.044;15.938;2022-12-18T12:58:49;6.50;;;5.30;;
74465;SDS011;62916;50.044;15.938;2022-12-18T13:01:32;5.40;;;4.80;;
74465;SDS011;62916;50.044;15.938;2022-12-18T13:04:12;6.60;;;5.60;;
74465;SDS011;62916;50.044;15.938;2022-12-18T13:06:53;6.00;;;5.40;;
74465;SDS011;62916;50.044;15.938;2022-12-18T13:09:31;6.00;;;5.10;;
74465;SDS011;62916;50.044;15.938;2022-12-18T13:12:04;5.50;;;4.80;;
74465;SDS011;62916;50.044;15.938;2022-12-18T13:15:13;6.40;;;5.10;;
74465;SDS011;62916;50.044;15.938;2022-12-18T13:18:04;7.00;;;6.40;;
74465;SDS011;62916;50.044;15.938;2022-12-18T13:20:46;8.10;;;5.10;;
74465;SDS011;62916;50.044;15.938;2022-12-18T13:23:32;7.10;;;5.60;;
74465;SDS011;62916;50.044;15.938;2022-12-18T13:29:00;5.60;;;4.50;;
74465;SDS011;62916;50.044;15.938;2022-12-18T13:34:20;5.00;;;4.50;;
74465;SDS011;62916;50.044;15.938;2022-12-18T13:36:55;6.20;;;4.90;;
74465;SDS011;62916;50.044;15.938;2022-12-18T13:39:49;6.70;;;5.20;;
74465;SDS011;62916;50.044;15.938;2022-12-18T13:42:36;5.70;;;4.50;;
74465;SDS011;62916;50.044;15.938;2022-12-18T13:45:37;5.90;;;4.70;;
74465;SDS011;62916;50.044;15.938;2022-12-18T13:48:16;6.20;;;5.60;;
74465;SDS011;62916;50.044;15.938;2022-12-18T13:50:56;5.90;;;5.00;;
74465;SDS011;62916;50.044;15.938;2022-12-18T13:53:32;5.40;;;4.50;;
74465;SDS011;62916;50.044;15.938;2022-12-18T13:56:08;5.60;;;4.80;;
74465;SDS011;62916;50.044;15.938;2022-12-18T13:58:43;8.00;;;5.00;;
74465;SDS011;62916;50.044;15.938;2022-12-18T14:01:23;5.90;;;5.00;;
74465;SDS011;62916;50.044;15.938;2022-12-18T14:06:37;5.40;;;4.50;;
74465;SDS011;62916;50.044;15.938;2022-12-18T14:09:14;5.70;;;4.60;;
74465;SDS011;62916;50.044;15.938;2022-12-18T14:11:48;6.30;;;4.80;;
74465;SDS011;62916;50.044;15.938;2022-12-18T14:14:43;7.10;;;4.90;;
74465;SDS011;62916;50.044;15.938;2022-12-18T14:17:18;6.50;;;4.30;;
74465;SDS011;62916;50.044;15.938;2022-12-18T14:19:50;6.50;;;4.70;;
74465;SDS011;62916;50.044;15.938;2022-12-18T14:22:25;5.30;;;4.60;;
74465;SDS011;62916;50.044;15.938;2022-12-18T14:25:13;6.40;;;4.80;;
74465;SDS011;62916;50.044;15.938;2022-12-18T14:27:47;6.00;;;4.20;;
74465;SDS011;62916;50.044;15.938;2022-12-18T14:30:29;6.30;;;5.20;;
74465;SDS011;62916;50.044;15.938;2022-12-18T14:33:03;5.60;;;4.90;;
74465;SDS011;62916;50.044;15.938;2022-12-18T14:35:38;5.60;;;4.90;;
74465;SDS011;62916;50.044;15.938;2022-12-18T14:38:20;6.10;;;5.40;;
74465;SDS011;62916;50.044;15.938;2022-12-18T14:40:59;5.90;;;4.90;;
74465;SDS011;62916;50.044;15.938;2022-12-18T14:43:31;7.70;;;6.20;;
74465;SDS011;62916;50.044;15.938;2022-12-18T14:46:04;6.10;;;5.40;;
74465;SDS011;62916;50.044;15.938;2022-12-18T14:48:55;6.00;;;5.40;;
74465;SDS011;62916;50.044;15.938;2022-12-18T14:51:27;5.60;;;5.10;;
74465;SDS011;62916;50.044;15.938;2022-12-18T14:54:00;7.00;;;6.30;;
74465;SDS011;62916;50.044;15.938;2022-12-18T14:56:36;6.50;;;5.80;;
74465;SDS011;62916;50.044;15.938;2022-12-18T14:59:15;6.80;;;6.10;;
74465;SDS011;62916;50.044;15.938;2022-12-18T15:01:55;6.00;;;5.40;;
74465;SDS011;62916;50.044;15.938;2022-12-18T15:04:33;6.20;;;5.60;;
74465;SDS011;62916;50.044;15.938;2022-12-18T15:07:10;7.10;;;6.40;;
74465;SDS011;62916;50.044;15.938;2022-12-18T15:09:46;6.40;;;5.70;;
74465;SDS011;62916;50.044;15.938;2022-12-18T15:12:34;6.50;;;5.50;;
74465;SDS011;62916;50.044;15.938;2022-12-18T15:18:11;6.50;;;5.90;;
74465;SDS011;62916;50.044;15.938;2022-12-18T15:20:45;7.10;;;6.20;;